createdAt,value
2022-10-23T07:01:44.558Z,10.50
2022-10-23T07:06:39.155Z,7.80
2022-10-23T07:11:33.851Z,16.43
2022-10-23T07:16:28.884Z,10.10
2022-10-23T07:21:24.499Z,13.40
2022-10-23T07:26:21.348Z,10.30
2022-10-23T07:41:26.676Z,15.17
2022-10-23T07:46:20.303Z,10.17
2022-10-23T07:51:16.532Z,10.73
2022-10-23T07:56:19.457Z,11.07
2022-10-23T08:01:36.258Z,10.10
2022-10-23T08:06:30.889Z,7.00
2022-10-23T08:11:28.935Z,6.90
2022-10-23T08:16:23.109Z,10.27
2022-10-23T08:21:57.327Z,7.07
2022-10-23T08:26:51.470Z,6.93
2022-10-23T08:31:48.465Z,8.10
2022-10-23T08:36:51.632Z,5.53
2022-10-23T08:41:50.729Z,6.13
2022-10-23T08:46:48.828Z,4.60
2022-10-23T08:52:03.901Z,6.43
2022-10-23T08:57:05.114Z,5.70
2022-10-23T09:02:02.867Z,4.23
2022-10-23T09:07:06.860Z,2.73
2022-10-23T09:12:08.720Z,2.50
2022-10-23T09:22:14.652Z,2.67
2022-10-23T09:27:15.916Z,1.60
2022-10-23T09:32:09.872Z,3.00
2022-10-23T09:37:06.148Z,2.07
2022-10-23T09:42:02.539Z,2.07
2022-10-23T09:47:01.304Z,1.70
2022-10-23T09:52:01.463Z,4.03
2022-10-23T09:57:00.053Z,3.10
2022-10-23T10:01:57.612Z,2.40
2022-10-23T10:07:21.678Z,2.87
2022-10-23T10:12:47.779Z,2.40
2022-10-23T10:17:53.659Z,3.13
2022-10-23T10:22:54.356Z,4.10
2022-10-23T10:28:01.394Z,3.00
2022-10-23T10:33:04.276Z,2.40
2022-10-23T10:38:28.927Z,2.33
2022-10-23T10:43:34.993Z,2.25
2022-10-23T10:48:43.587Z,3.03
2022-10-23T10:54:10.286Z,2.83
2022-10-23T10:59:07.858Z,2.75
2022-10-23T11:04:13.031Z,1.70
2022-10-23T11:09:20.789Z,1.70
2022-10-23T11:14:18.075Z,2.58
2022-10-23T11:19:19.511Z,2.78
2022-10-23T11:24:53.388Z,4.80
2022-10-23T11:30:19.923Z,1.65
2022-10-23T11:35:39.540Z,2.17
2022-10-23T11:40:33.864Z,1.60
2022-10-23T11:45:35.952Z,3.47
2022-10-23T11:50:34.016Z,4.05
2022-10-23T11:55:28.855Z,2.85
2022-10-23T12:00:26.636Z,1.75
2022-10-23T12:05:31.750Z,3.85
2022-10-23T12:10:31.661Z,1.48
2022-10-23T12:15:40.582Z,2.08
2022-10-23T12:20:48.339Z,2.80
2022-10-23T12:25:59.763Z,3.00
2022-10-23T12:31:03.077Z,4.30
2022-10-23T12:36:29.008Z,1.30
2022-10-23T12:41:27.802Z,3.78
2022-10-23T12:46:32.057Z,2.00
2022-10-23T12:51:30.003Z,1.50
2022-10-23T12:56:29.399Z,3.78
2022-10-23T13:01:29.424Z,3.25
2022-10-23T13:06:23.771Z,2.20
2022-10-23T13:11:22.593Z,2.35
2022-10-23T13:16:22.552Z,2.40
2022-10-23T13:21:21.769Z,3.40
2022-10-23T13:26:35.212Z,3.10
2022-10-23T13:31:33.640Z,1.92
2022-10-23T13:36:30.267Z,3.03
2022-10-23T13:41:27.490Z,3.00
2022-10-23T13:46:24.597Z,4.22
2022-10-23T13:51:24.475Z,4.97
2022-10-23T13:56:23.224Z,3.20
2022-10-23T14:01:23.764Z,2.70
2022-10-23T14:06:19.461Z,6.20
2022-10-23T14:16:09.784Z,3.65
2022-10-23T14:21:04.137Z,1.95
2022-10-23T14:26:05.343Z,2.97
2022-10-23T14:30:59.155Z,2.20
2022-10-23T14:35:52.872Z,3.38
2022-10-23T14:40:46.567Z,4.50
2022-10-23T14:45:42.055Z,3.90
2022-10-23T14:50:39.004Z,4.30
2022-10-23T14:55:33.099Z,3.90
2022-10-23T15:00:27.097Z,3.40
2022-10-23T15:05:23.819Z,3.38
2022-10-23T15:15:16.938Z,2.85
2022-10-23T15:20:11.574Z,5.63
2022-10-23T15:25:07.984Z,7.15
2022-10-23T15:30:03.202Z,7.18
2022-10-23T15:35:00.392Z,13.88
2022-10-23T15:39:57.183Z,11.00
2022-10-23T15:44:59.143Z,18.50
2022-10-23T15:49:53.522Z,11.45
2022-10-23T15:54:47.781Z,18.48
2022-10-23T15:59:41.399Z,16.88
2022-10-23T16:04:37.050Z,10.63
2022-10-23T16:09:31.307Z,9.38
2022-10-23T16:14:25.407Z,6.68
2022-10-23T16:19:19.085Z,9.95
2022-10-23T16:24:14.169Z,10.80
2022-10-23T16:29:09.455Z,14.00
2022-10-23T16:34:05.801Z,10.63
2022-10-23T16:38:59.536Z,19.17
2022-10-23T16:44:14.769Z,24.20
2022-10-23T16:49:20.105Z,21.70
2022-10-23T16:54:14.747Z,20.57
2022-10-23T16:59:08.429Z,20.57
2022-10-23T17:04:03.511Z,21.07
2022-10-23T17:08:58.044Z,21.97
2022-10-23T17:13:57.155Z,19.07
2022-10-23T17:18:53.190Z,16.70
2022-10-23T17:23:49.814Z,37.93
2022-10-23T17:28:43.955Z,44.63
2022-10-23T17:33:37.661Z,26.30
2022-10-23T17:38:31.493Z,24.83
2022-10-23T17:43:26.628Z,29.57
2022-10-23T17:48:20.124Z,24.73
2022-10-23T17:53:13.783Z,26.60
2022-10-23T17:58:07.591Z,30.23
2022-10-23T18:03:03.640Z,23.57
2022-10-23T18:07:59.833Z,20.13
2022-10-23T18:12:53.437Z,22.13
2022-10-23T18:17:47.241Z,21.50
2022-10-23T18:22:46.242Z,22.47
2022-10-23T18:27:41.659Z,25.67
2022-10-23T18:32:35.401Z,24.50
2022-10-23T18:37:31.726Z,26.87
2022-10-23T18:42:28.334Z,24.17
